• Join FlightAware (Why Join?)
  • Login
  • US Flag 
03:00AM EDT


 

Airport Tracker/Info


-or-


 

Live Flight TrackerFlight Track Log ✈ N277GM ✈ 24-Jul-2013 ✈ KTMB - LEAS / OVD

Flight Track Log - Related Links

Times and Time Zones

All times are in EDT time to prevent confusion due to time zone crossing. See the N277GM flight status page for this flight to view local times or setup timezone preferences in your user account.

Time Position Orientation Groundspeed Altitude Reporting Facility
EDT Latitude Longitude Course Direction KTS MPH feet Rate Location/Type
09:05PM 28.7167 -76.5667 61° Northeast 393 452 43,000  Level New York Oceanic (ODAPS)
09:10PM 30.1593 -73.3970 52° Northeast  Level Estimated
09:11PM 30.2290 -73.2785 56° Northeast  Level Estimated
09:12PM 29.8779 -74.0962 62° Northeast 393 452 43,000  Level FlightAware Transoceanic
09:13PM 29.9320 -73.9772 62° Northeast 393 452 43,000  Level FlightAware Transoceanic
09:14PM 29.9861 -73.8580 62° Northeast 393 452 43,000  Level FlightAware Transoceanic
09:15PM 30.0400 -73.7387 62° Northeast 393 452 43,000  Level FlightAware Transoceanic
09:16PM 30.0938 -73.6193 63° Northeast 393 452 43,000  Level FlightAware Transoceanic
09:17PM 30.1475 -73.4997 63° Northeast 393 452 43,000  Level FlightAware Transoceanic
09:18PM 30.2011 -73.3800 63° Northeast 393 452 43,000  Level FlightAware Transoceanic
09:19PM 30.2546 -73.2602 63° Northeast 393 452 43,000  Level FlightAware Transoceanic
09:20PM 30.3080 -73.1402 63° Northeast 393 452 43,000  Level FlightAware Transoceanic
09:21PM 30.3613 -73.0201 63° Northeast 393 452 43,000  Level FlightAware Transoceanic
09:22PM 30.4145 -72.8999 63° Northeast 393 452 43,000  Level FlightAware Transoceanic
09:23PM 30.4675 -72.7795 63° Northeast 393 452 43,000  Level FlightAware Transoceanic
09:24PM 30.5205 -72.6591 63° Northeast 393 452 43,000  Level FlightAware Transoceanic
09:25PM 30.5733 -72.5384 63° Northeast 393 452 43,000  Level FlightAware Transoceanic
09:26PM 30.6261 -72.4177 63° Northeast 393 452 43,000  Level FlightAware Transoceanic
09:27PM 30.6787 -72.2968 63° Northeast 393 452 43,000  Level FlightAware Transoceanic
09:28PM 30.7312 -72.1758 63° Northeast 393 452 43,000  Level FlightAware Transoceanic
09:29PM 30.7836 -72.0547 63° Northeast 393 452 43,000  Level FlightAware Transoceanic
09:30PM 30.8358 -71.9334 63° Northeast 393 452 43,000  Level FlightAware Transoceanic
09:31PM 30.8880 -71.8120 63° Northeast 393 452 43,000  Level FlightAware Transoceanic
09:32PM 30.9401 -71.6905 64° Northeast 393 452 43,000  Level FlightAware Transoceanic
09:33PM 30.9920 -71.5688 64° Northeast 393 452 43,000  Level FlightAware Transoceanic
09:34PM 31.0438 -71.4470 64° Northeast 393 452 43,000  Level FlightAware Transoceanic
09:34PM 30.5667 -72.5667 63° Northeast 445 512 43,000  Level New York Oceanic (ODAPS)
09:35PM 31.0955 -71.3251 64° Northeast 393 452 43,000  Level FlightAware Transoceanic
09:36PM 31.1471 -71.2030 64° Northeast 393 452 43,000  Level FlightAware Transoceanic
09:37PM 31.1986 -71.0808 64° Northeast 393 452 43,000  Level FlightAware Transoceanic
09:38PM 31.2500 -70.9585 64° Northeast 393 452 43,000  Level FlightAware Transoceanic
09:39PM 31.3012 -70.8360 64° Northeast 393 452 43,000  Level FlightAware Transoceanic
09:40PM 31.3410 -70.7484 64° Northeast 445 512 43,000  Level FlightAware Transoceanic
09:41PM 31.3953 -70.6174 64° Northeast 445 512 43,000  Level FlightAware Transoceanic
09:42PM 31.4495 -70.4863 64° Northeast 445 512 43,000  Level FlightAware Transoceanic
09:43PM 31.5036 -70.3550 64° Northeast 445 512 43,000  Level FlightAware Transoceanic
09:44PM 31.5575 -70.2235 64° Northeast 445 512 43,000  Level FlightAware Transoceanic
09:44PM 31.4500 -70.5000 64° Northeast 427 491 43,000  Level New York Oceanic (ODAPS)
09:45PM 31.6113 -70.0919 64° Northeast 445 512 43,000  Level FlightAware Transoceanic
09:46PM 31.6650 -69.9601 64° Northeast 445 512 43,000  Level FlightAware Transoceanic
09:47PM 31.7185 -69.8282 65° Northeast 445 512 43,000  Level FlightAware Transoceanic
09:48PM 31.7719 -69.6962 65° Northeast 445 512 43,000  Level FlightAware Transoceanic
09:49PM 31.8251 -69.5639 65° Northeast 445 512 43,000  Level FlightAware Transoceanic
09:50PM 31.8782 -69.4316 65° Northeast 445 512 43,000  Level FlightAware Transoceanic
09:51PM 31.9050 -69.3722 65° Northeast 427 491 43,000  Level FlightAware Transoceanic
09:52PM 31.9550 -69.2462 65° Northeast 427 491 43,000  Level FlightAware Transoceanic
09:53PM 32.0048 -69.1201 65° Northeast 427 491 43,000  Level FlightAware Transoceanic
09:54PM 32.0545 -68.9938 65° Northeast 427 491 43,000  Level FlightAware Transoceanic
09:55PM 32.1040 -68.8674 65° Northeast 427 491 43,000  Level FlightAware Transoceanic
09:56PM 32.1535 -68.7409 65° Northeast 427 491 43,000  Level FlightAware Transoceanic
09:57PM 32.2028 -68.6142 65° Northeast 427 491 43,000  Level FlightAware Transoceanic
09:58PM 32.2520 -68.4874 65° Northeast 427 491 43,000  Level FlightAware Transoceanic
09:59PM 32.3011 -68.3604 65° Northeast 427 491 43,000  Level FlightAware Transoceanic
10:00PM 32.3500 -68.2333 89° East 427 491 43,000  Level FlightAware Transoceanic
10:00PM 32.3500 -68.2333 89° East 415 478 43,000  Level New York Oceanic (ODAPS)
10:01PM 32.3527 -68.0855 89° East 427 491 43,000  Level FlightAware Transoceanic
10:02PM 32.3552 -67.9376 89° East 427 491 43,000  Level FlightAware Transoceanic
10:03PM 32.3575 -67.7897 89° East 427 491 43,000  Level FlightAware Transoceanic
10:04PM 32.3597 -67.6418 89° East 427 491 43,000  Level FlightAware Transoceanic
10:05PM 32.3617 -67.4939 89° East 427 491 43,000  Level FlightAware Transoceanic
10:05PM 32.3667 -67.2000 63° Northeast 457 526 43,000  Level New York Oceanic (ODAPS)
10:06PM 32.3657 -67.1412 89° East 415 478 43,000  Level FlightAware Transoceanic
10:07PM 32.3670 -67.0047 89° East 415 478 43,000  Level FlightAware Transoceanic
10:07PM 32.3667 -67.2000 63° Northeast 403 464 43,000  Level New York Oceanic (ODAPS)
10:08PM 32.3682 -66.8681 89° East 415 478 43,000  Level FlightAware Transoceanic
10:09PM 32.3692 -66.7316 90° East 415 478 43,000  Level FlightAware Transoceanic
10:10PM 32.3700 -66.5950 90° East 415 478 43,000  Level FlightAware Transoceanic
10:11PM 32.3708 -66.4585 90° East 415 478 43,000  Level FlightAware Transoceanic
10:12PM 32.7669 -66.2596 63° Northeast 457 526 43,000  Level FlightAware Transoceanic
10:13PM 32.7696 -66.2532 63° Northeast 403 464 43,000  Level FlightAware Transoceanic
10:14PM 32.8195 -66.1342 64° Northeast 403 464 43,000  Level FlightAware Transoceanic
10:15PM 32.8693 -66.0151 64° Northeast 403 464 43,000  Level FlightAware Transoceanic
10:16PM 32.9189 -65.8959 64° Northeast 403 464 43,000  Level FlightAware Transoceanic
10:17PM 32.9684 -65.7765 64° Northeast 403 464 43,000  Level FlightAware Transoceanic
10:18PM 33.0179 -65.6571 64° Northeast 403 464 43,000  Level FlightAware Transoceanic
10:19PM 33.0672 -65.5374 64° Northeast 403 464 43,000  Level FlightAware Transoceanic
10:20PM 33.1164 -65.4177 64° Northeast 403 464 43,000  Level FlightAware Transoceanic
10:21PM 33.1654 -65.2978 64° Northeast 403 464 43,000  Level FlightAware Transoceanic
10:22PM 33.2144 -65.1777 64° Northeast 403 464 43,000  Level FlightAware Transoceanic
10:23PM 33.2632 -65.0576 64° Northeast 403 464 43,000  Level FlightAware Transoceanic
10:24PM 33.3120 -64.9373 64° Northeast 403 464 43,000  Level FlightAware Transoceanic
10:25PM 33.3606 -64.8169 64° Northeast 403 464 43,000  Level FlightAware Transoceanic
10:26PM 33.4091 -64.6963 64° Northeast 403 464 43,000  Level FlightAware Transoceanic
10:27PM 33.4575 -64.5756 64° Northeast 403 464 43,000  Level FlightAware Transoceanic
10:28PM 33.5057 -64.4548 64° Northeast 403 464 43,000  Level FlightAware Transoceanic
10:29PM 33.5539 -64.3338 65° Northeast 403 464 43,000  Level FlightAware Transoceanic
10:30PM 33.6019 -64.2127 65° Northeast 403 464 43,000  Level FlightAware Transoceanic
10:31PM 33.6498 -64.0915 65° Northeast 403 464 43,000  Level FlightAware Transoceanic
10:32PM 33.6976 -63.9701 65° Northeast 403 464 43,000  Level FlightAware Transoceanic
10:33PM 33.7453 -63.8486 65° Northeast 403 464 43,000  Level FlightAware Transoceanic
10:34PM 33.7928 -63.7270 65° Northeast 403 464 43,000  Level FlightAware Transoceanic
10:35PM 33.8402 -63.6052 65° Northeast 403 464 43,000  Level FlightAware Transoceanic
10:36PM 33.8876 -63.4833 65° Northeast 403 464 43,000  Level FlightAware Transoceanic
10:37PM 33.9347 -63.3612 65° Northeast 403 464 43,000  Level FlightAware Transoceanic
10:38PM 33.9818 -63.2391 65° Northeast 403 464 43,000  Level FlightAware Transoceanic
10:39PM 34.0288 -63.1167 65° Northeast 403 464 43,000  Level FlightAware Transoceanic
10:40PM 34.0756 -62.9943 65° Northeast 403 464 43,000  Level FlightAware Transoceanic
10:41PM 34.1223 -62.8717 65° Northeast 403 464 43,000  Level FlightAware Transoceanic
10:42PM 34.1689 -62.7490 65° Northeast 403 464 43,000  Level FlightAware Transoceanic
10:43PM 34.2154 -62.6261 65° Northeast 403 464 43,000  Level FlightAware Transoceanic
10:44PM 34.2617 -62.5031 66° East 403 464 43,000  Level FlightAware Transoceanic
10:45PM 34.3079 -62.3800 66° East 403 464 43,000  Level FlightAware Transoceanic
10:46PM 34.3540 -62.2567 66° East 403 464 43,000  Level FlightAware Transoceanic
10:47PM 34.4000 -62.1333 71° East 403 464 43,000  Level FlightAware Transoceanic
10:48PM 34.4412 -61.9921 71° East 403 464 43,000  Level FlightAware Transoceanic
10:48PM 34.4000 -62.1333 71° East 418 481 43,000  Level New York Oceanic (ODAPS)
10:49PM 34.4821 -61.8507 71° East 403 464 43,000  Level FlightAware Transoceanic
10:50PM 34.5230 -61.7091 71° East 403 464 43,000  Level FlightAware Transoceanic
10:51PM 34.5636 -61.5675 71° East 403 464 43,000  Level FlightAware Transoceanic
10:52PM 34.6041 -61.4257 71° East 403 464 43,000  Level FlightAware Transoceanic
10:53PM 34.6445 -61.2837 71° East 403 464 43,000  Level FlightAware Transoceanic
10:54PM 34.6846 -61.1416 71° East 403 464 43,000  Level FlightAware Transoceanic
10:55PM 34.7794 -60.8036 71° East 418 481 43,000  Level FlightAware Transoceanic
10:56PM 34.8165 -60.6700 71° East 418 481 43,000  Level FlightAware Transoceanic
10:57PM 34.8535 -60.5362 71° East 418 481 43,000  Level FlightAware Transoceanic
10:58PM 34.8903 -60.4024 71° East 418 481 43,000  Level FlightAware Transoceanic
10:59PM 34.9270 -60.2683 72° East 418 481 43,000  Level FlightAware Transoceanic
11:00PM 34.9636 -60.1342 72° East 418 481 43,000  Level FlightAware Transoceanic
11:01PM 35.0000 -60.0000 60° Northeast 418 481 43,000  Level FlightAware Transoceanic
11:02PM 35.0619 -59.8664 61° Northeast 418 481 43,000  Level FlightAware Transoceanic
11:03PM 35.1237 -59.7326 61° Northeast 418 481 43,000  Level FlightAware Transoceanic
11:03PM 35.0000 -60.0000 60° Northeast 441 507 43,000  Level New York Oceanic (ODAPS)
11:04PM 35.1854 -59.5986 61° Northeast 418 481 43,000  Level FlightAware Transoceanic
11:05PM 35.2469 -59.4644 61° Northeast 418 481 43,000  Level FlightAware Transoceanic
11:06PM 35.3082 -59.3300 61° Northeast 418 481 43,000  Level FlightAware Transoceanic
11:07PM 35.3694 -59.1954 61° Northeast 418 481 43,000  Level FlightAware Transoceanic
11:08PM 35.4304 -59.0606 61° Northeast 418 481 43,000  Level FlightAware Transoceanic
11:09PM 35.5371 -58.8238 61° Northeast 441 507 43,000  Level FlightAware Transoceanic
11:10PM 35.5961 -58.6921 61° Northeast 441 507 43,000  Level FlightAware Transoceanic
11:11PM 35.6549 -58.5603 61° Northeast 441 507 43,000  Level FlightAware Transoceanic
11:12PM 35.7136 -58.4282 61° Northeast 441 507 43,000  Level FlightAware Transoceanic
11:13PM 35.7721 -58.2960 61° Northeast 441 507 43,000  Level FlightAware Transoceanic
11:14PM 35.8305 -58.1636 62° Northeast 441 507 43,000  Level FlightAware Transoceanic
11:15PM 35.8888 -58.0309 62° Northeast 441 507 43,000  Level FlightAware Transoceanic
11:16PM 35.9469 -57.8981 62° Northeast 441 507 43,000  Level FlightAware Transoceanic
11:17PM 36.0048 -57.7651 62° Northeast 441 507 43,000  Level FlightAware Transoceanic
11:18PM 36.0627 -57.6319 62° Northeast 441 507 43,000  Level FlightAware Transoceanic
11:19PM 36.1203 -57.4985 62° Northeast 441 507 43,000  Level FlightAware Transoceanic
11:20PM 36.1778 -57.3648 62° Northeast 441 507 43,000  Level FlightAware Transoceanic
11:21PM 36.2352 -57.2310 62° Northeast 441 507 43,000  Level FlightAware Transoceanic
11:22PM 36.2924 -57.0970 62° Northeast 441 507 43,000  Level FlightAware Transoceanic
11:23PM 36.3495 -56.9628 62° Northeast 441 507 43,000  Level FlightAware Transoceanic
11:24PM 36.4064 -56.8285 62° Northeast 441 507 43,000  Level FlightAware Transoceanic
11:25PM 36.4632 -56.6939 62° Northeast 441 507 43,000  Level FlightAware Transoceanic
11:26PM 36.5198 -56.5591 62° Northeast 441 507 43,000  Level FlightAware Transoceanic
11:27PM 36.5762 -56.4241 63° Northeast 441 507 43,000  Level FlightAware Transoceanic
11:28PM 36.6326 -56.2889 63° Northeast 441 507 43,000  Level FlightAware Transoceanic
11:29PM 36.6887 -56.1535 63° Northeast 441 507 43,000  Level FlightAware Transoceanic
11:30PM 36.7447 -56.0180 63° Northeast 441 507 43,000  Level FlightAware Transoceanic
11:31PM 36.8006 -55.8822 63° Northeast 441 507 43,000  Level FlightAware Transoceanic
11:32PM 36.8563 -55.7462 63° Northeast 441 507 43,000  Level FlightAware Transoceanic
11:33PM 36.9118 -55.6101 63° Northeast 441 507 43,000  Level FlightAware Transoceanic
11:34PM 36.9672 -55.4737 63° Northeast 441 507 43,000  Level FlightAware Transoceanic
11:35PM 37.0224 -55.3371 63° Northeast 441 507 43,000  Level FlightAware Transoceanic
11:36PM 37.0775 -55.2004 63° Northeast 441 507 43,000  Level FlightAware Transoceanic
11:37PM 37.1324 -55.0634 63° Northeast 441 507 43,000  Level FlightAware Transoceanic
11:38PM 37.1872 -54.9262 63° Northeast 441 507 43,000  Level FlightAware Transoceanic
11:39PM 37.2418 -54.7889 64° Northeast 441 507 43,000  Level FlightAware Transoceanic
11:40PM 37.2962 -54.6513 64° Northeast 441 507 43,000  Level FlightAware Transoceanic
11:41PM 37.3505 -54.5136 64° Northeast 441 507 43,000  Level FlightAware Transoceanic
11:42PM 37.4046 -54.3756 64° Northeast 441 507 43,000  Level FlightAware Transoceanic
11:43PM 37.4586 -54.2375 64° Northeast 441 507 43,000  Level FlightAware Transoceanic
11:44PM 37.5124 -54.0991 64° Northeast 441 507 43,000  Level FlightAware Transoceanic
11:45PM 37.5660 -53.9605 64° Northeast 441 507 43,000  Level FlightAware Transoceanic
11:46PM 37.6195 -53.8218 64° Northeast 441 507 43,000  Level FlightAware Transoceanic
11:47PM 37.6728 -53.6828 64° Northeast 441 507 43,000  Level FlightAware Transoceanic
11:48PM 37.7259 -53.5437 64° Northeast 441 507 43,000  Level FlightAware Transoceanic
11:49PM 37.7789 -53.4043 64° Northeast 441 507 43,000  Level FlightAware Transoceanic
11:50PM 37.8317 -53.2648 64° Northeast 441 507 43,000  Level FlightAware Transoceanic
11:51PM 37.8844 -53.1250 65° Northeast 441 507 43,000  Level FlightAware Transoceanic
11:52PM 37.9369 -52.9851 65° Northeast 441 507 43,000  Level FlightAware Transoceanic
11:53PM 37.9892 -52.8449 65° Northeast 441 507 43,000  Level FlightAware Transoceanic
11:54PM 38.0414 -52.7046 65° Northeast 441 507 43,000  Level FlightAware Transoceanic
11:55PM 38.0934 -52.5640 65° Northeast 441 507 43,000  Level FlightAware Transoceanic
11:56PM 38.1452 -52.4233 65° Northeast 441 507 43,000  Level FlightAware Transoceanic
11:57PM 38.1968 -52.2823 65° Northeast 441 507 43,000  Level FlightAware Transoceanic
11:58PM 38.2483 -52.1412 65° Northeast 441 507 43,000  Level FlightAware Transoceanic
11:59PM 38.2996 -51.9998 65° Northeast 441 507 43,000  Level FlightAware Transoceanic
12:00AM 38.3508 -51.8583 65° Northeast 441 507 43,000  Level FlightAware Transoceanic
12:01AM 38.4018 -51.7165 65° Northeast 441 507 43,000  Level FlightAware Transoceanic
12:02AM 38.4526 -51.5746 65° Northeast 441 507 43,000  Level FlightAware Transoceanic
12:03AM 38.5032 -51.4324 66° East 441 507 43,000  Level FlightAware Transoceanic
12:04AM 38.5537 -51.2901 66° East 441 507 43,000  Level FlightAware Transoceanic
12:05AM 38.6040 -51.1476 66° East 441 507 43,000  Level FlightAware Transoceanic
12:06AM 38.6541 -51.0048 66° East 441 507 43,000  Level FlightAware Transoceanic
12:07AM 38.7040 -50.8619 66° East 441 507 43,000  Level FlightAware Transoceanic
12:08AM 38.7538 -50.7187 66° East 441 507 43,000  Level FlightAware Transoceanic
12:09AM 38.8034 -50.5754 66° East 441 507 43,000  Level FlightAware Transoceanic
12:10AM 38.8528 -50.4318 66° East 441 507 43,000  Level FlightAware Transoceanic
12:11AM 38.9021 -50.2881 66° East 441 507 43,000  Level FlightAware Transoceanic
12:12AM 38.9511 -50.1441 66° East 441 507 43,000  Level FlightAware Transoceanic
12:13AM 39.0000 -50.0000 65° Northeast 441 507 43,000  Level FlightAware Transoceanic
12:14AM 39.0525 -49.8530 65° Northeast 441 507 43,000  Level FlightAware Transoceanic
12:15AM 39.1048 -49.7058 65° Northeast 441 507 43,000  Level FlightAware Transoceanic
12:16AM 39.1569 -49.5584 66° East 441 507 43,000  Level FlightAware Transoceanic
12:17AM 39.2088 -49.4108 66° East 441 507 43,000  Level FlightAware Transoceanic
12:18AM 39.2606 -49.2629 66° East 441 507 43,000  Level FlightAware Transoceanic
12:19AM 39.3121 -49.1149 66° East 441 507 43,000  Level FlightAware Transoceanic
12:19AM 39.0000 -50.0000 65° Northeast 446 513 43,000  Level New York Oceanic (ODAPS)
12:20AM 39.3635 -48.9666 66° East 441 507 43,000  Level FlightAware Transoceanic
12:21AM 39.4146 -48.8181 66° East 441 507 43,000  Level FlightAware Transoceanic
12:22AM 39.4656 -48.6694 66° East 441 507 43,000  Level FlightAware Transoceanic
12:23AM 39.5164 -48.5204 66° East 441 507 43,000  Level FlightAware Transoceanic
12:24AM 39.5670 -48.3713 66° East 441 507 43,000  Level FlightAware Transoceanic
12:25AM 39.6083 -48.2491 66° East 446 513 43,000  Level FlightAware Transoceanic
12:26AM 39.6578 -48.1018 66° East 446 513 43,000  Level FlightAware Transoceanic
12:27AM 39.7071 -47.9543 67° East 446 513 43,000  Level FlightAware Transoceanic
12:28AM 39.7562 -47.8066 67° East 446 513 43,000  Level FlightAware Transoceanic
12:29AM 39.8052 -47.6587 67° East 446 513 43,000  Level FlightAware Transoceanic
12:30AM 39.8539 -47.5106 67° East 446 513 43,000  Level FlightAware Transoceanic
12:31AM 39.9025 -47.3622 67° East 446 513 43,000  Level FlightAware Transoceanic
12:32AM 39.9509 -47.2137 67° East 446 513 43,000  Level FlightAware Transoceanic
12:33AM 39.9990 -47.0649 67° East 446 513 43,000  Level FlightAware Transoceanic
12:34AM 40.0470 -46.9160 67° East 446 513 43,000  Level FlightAware Transoceanic
12:35AM 40.0948 -46.7668 67° East 446 513 43,000  Level FlightAware Transoceanic
12:36AM 40.1424 -46.6174 67° East 446 513 43,000  Level FlightAware Transoceanic
12:37AM 40.1898 -46.4678 68° East 446 513 43,000  Level FlightAware Transoceanic
12:38AM 40.2371 -46.3180 68° East 446 513 43,000  Level FlightAware Transoceanic
12:39AM 40.2841 -46.1680 68° East 446 513 43,000  Level FlightAware Transoceanic
12:40AM 40.3309 -46.0178 68° East 446 513 43,000  Level FlightAware Transoceanic
12:41AM 40.3776 -45.8674 68° East 446 513 43,000  Level FlightAware Transoceanic
12:42AM 40.4240 -45.7167 68° East 446 513 43,000  Level FlightAware Transoceanic
12:43AM 40.4703 -45.5659 68° East 446 513 43,000  Level FlightAware Transoceanic
12:44AM 40.5163 -45.4148 68° East 446 513 43,000  Level FlightAware Transoceanic
12:45AM 40.5622 -45.2636 68° East 446 513 43,000  Level FlightAware Transoceanic
12:46AM 40.6078 -45.1121 68° East 446 513 43,000  Level FlightAware Transoceanic
12:47AM 40.6533 -44.9604 68° East 446 513 43,000  Level FlightAware Transoceanic
12:48AM 40.6986 -44.8086 69° East 446 513 43,000  Level FlightAware Transoceanic
12:49AM 40.7436 -44.6565 69° East 446 513 43,000  Level FlightAware Transoceanic
12:50AM 40.7885 -44.5042 69° East 446 513 43,000  Level FlightAware Transoceanic
12:51AM 40.8332 -44.3517 69° East 446 513 43,000  Level FlightAware Transoceanic
12:52AM 40.8776 -44.1990 69° East 446 513 43,000  Level FlightAware Transoceanic
12:53AM 40.9219 -44.0461 69° East 446 513 43,000  Level FlightAware Transoceanic
12:54AM 40.9660 -43.8930 69° East 446 513 43,000  Level FlightAware Transoceanic
12:55AM 41.0098 -43.7397 69° East 446 513 43,000  Level FlightAware Transoceanic
12:56AM 41.0535 -43.5862 69° East 446 513 43,000  Level FlightAware Transoceanic
12:57AM 41.0969 -43.4324 69° East 446 513 43,000  Level FlightAware Transoceanic
12:58AM 41.1402 -43.2785 70° East 446 513 43,000  Level FlightAware Transoceanic
12:59AM 41.1832 -43.1244 70° East 446 513 43,000  Level FlightAware Transoceanic
01:00AM 41.2260 -42.9701 70° East 446 513 43,000  Level FlightAware Transoceanic
01:01AM 41.2687 -42.8155 70° East 446 513 43,000  Level FlightAware Transoceanic
01:02AM 41.3111 -42.6608 70° East 446 513 43,000  Level FlightAware Transoceanic
01:03AM 41.3533 -42.5059 70° East 446 513 43,000  Level FlightAware Transoceanic
01:04AM 41.3953 -42.3507 70° East 446 513 43,000  Level FlightAware Transoceanic
01:05AM 41.4371 -42.1954 70° East 446 513 43,000  Level FlightAware Transoceanic
01:06AM 41.4787 -42.0399 70° East 446 513 43,000  Level FlightAware Transoceanic
01:07AM 41.5201 -41.8841 71° East 446 513 43,000  Level FlightAware Transoceanic
01:08AM 41.5612 -41.7282 71° East 446 513 43,000  Level FlightAware Transoceanic
01:09AM 41.6022 -41.5721 71° East 446 513 43,000  Level FlightAware Transoceanic
01:10AM 41.6429 -41.4157 71° East 446 513 43,000  Level FlightAware Transoceanic
01:11AM 41.6834 -41.2592 71° East 446 513 43,000  Level FlightAware Transoceanic
01:12AM 41.7238 -41.1025 71° East 446 513 43,000  Level FlightAware Transoceanic
01:13AM 41.7639 -40.9456 71° East 446 513 43,000  Level FlightAware Transoceanic
01:14AM 41.8038 -40.7885 71° East 446 513 43,000  Level FlightAware Transoceanic
01:15AM 41.8434 -40.6312 71° East 446 513 43,000  Level FlightAware Transoceanic
01:16AM 41.8829 -40.4737 71° East 446 513 43,000  Level FlightAware Transoceanic
01:17AM 41.9221 -40.3160 72° East 446 513 43,000  Level FlightAware Transoceanic
01:18AM 41.9612 -40.1581 72° East 446 513 43,000  Level FlightAware Transoceanic
01:19AM 42.0000 -40.0000 79° East 446 513 43,000  Level FlightAware Transoceanic
01:20AM 42.0245 -39.8306 79° East 446 513 43,000  Level FlightAware Transoceanic
01:21AM 42.0488 -39.6612 79° East 446 513 43,000  Level FlightAware Transoceanic
01:22AM 42.0728 -39.4915 79° East 446 513 43,000  Level FlightAware Transoceanic
01:22AM 42.0000 -40.0000 79° East 438 504 43,000  Level ETMS Enhanced Traffic Management System
01:23AM 42.0966 -39.3218 79° East 446 513 43,000  Level FlightAware Transoceanic
01:24AM 42.1202 -39.1519 79° East 446 513 43,000  Level FlightAware Transoceanic
01:25AM 42.1434 -38.9819 80° East 446 513 43,000  Level FlightAware Transoceanic
01:26AM 42.1665 -38.8118 80° East 446 513 43,000  Level FlightAware Transoceanic
01:27AM 42.1892 -38.6416 80° East 446 513 43,000  Level FlightAware Transoceanic
01:28AM 42.1803 -38.7085 80° East 438 504 43,000  Level FlightAware Transoceanic
01:29AM 42.2018 -38.5466 80° East 438 504 43,000  Level FlightAware Transoceanic
01:30AM 42.2231 -38.3846 80° East 438 504 43,000  Level FlightAware Transoceanic
01:31AM 42.2442 -38.2224 80° East 438 504 43,000  Level FlightAware Transoceanic
01:32AM 42.2650 -38.0601 80° East 438 504 43,000  Level FlightAware Transoceanic
01:33AM 42.2856 -37.8978 80° East 438 504 43,000  Level FlightAware Transoceanic
01:34AM 42.3060 -37.7353 80° East 438 504 43,000  Level FlightAware Transoceanic
01:35AM 42.3261 -37.5727 81° East 438 504 43,000  Level FlightAware Transoceanic
01:36AM 42.3461 -37.4100 81° East 438 504 43,000  Level FlightAware Transoceanic
01:37AM 42.3657 -37.2472 81° East 438 504 43,000  Level FlightAware Transoceanic
01:38AM 42.3852 -37.0843 81° East 438 504 43,000  Level FlightAware Transoceanic
01:39AM 42.4044 -36.9213 81° East 438 504 43,000  Level FlightAware Transoceanic
01:40AM 42.4234 -36.7583 81° East 438 504 43,000  Level FlightAware Transoceanic
01:41AM 42.4422 -36.5951 81° East 438 504 43,000  Level FlightAware Transoceanic
01:42AM 42.4607 -36.4318 81° East 438 504 43,000  Level FlightAware Transoceanic
01:43AM 42.4790 -36.2684 81° East 438 504 43,000  Level FlightAware Transoceanic
01:44AM 42.4971 -36.1049 82° East 438 504 43,000  Level FlightAware Transoceanic
01:45AM 42.5149 -35.9413 82° East 438 504 43,000  Level FlightAware Transoceanic
01:46AM 42.5325 -35.7777 82° East 438 504 43,000  Level FlightAware Transoceanic
01:47AM 42.5499 -35.6139 82° East 438 504 43,000  Level FlightAware Transoceanic
01:48AM 42.5670 -35.4501 82° East 438 504 43,000  Level FlightAware Transoceanic
01:49AM 42.5839 -35.2862 82° East 438 504 43,000  Level FlightAware Transoceanic
01:50AM 42.6006 -35.1221 82° East 438 504 43,000  Level FlightAware Transoceanic
01:51AM 42.6170 -34.9580 82° East 438 504 43,000  Level FlightAware Transoceanic
01:52AM 42.6332 -34.7938 82° East 438 504 43,000  Level FlightAware Transoceanic
01:53AM 42.6492 -34.6295 83° East 438 504 43,000  Level FlightAware Transoceanic
01:54AM 42.6649 -34.4652 83° East 438 504 43,000  Level FlightAware Transoceanic
01:55AM 42.6804 -34.3007 83° East 438 504 43,000  Level FlightAware Transoceanic
01:56AM 42.6956 -34.1362 83° East 438 504 43,000  Level FlightAware Transoceanic
01:57AM 42.7107 -33.9716 83° East 438 504 43,000  Level FlightAware Transoceanic
01:58AM 42.7255 -33.8069 83° East 438 504 43,000  Level FlightAware Transoceanic
01:59AM 42.7400 -33.6421 83° East 438 504 43,000  Level FlightAware Transoceanic
02:00AM 42.7543 -33.4773 83° East 438 504 43,000  Level FlightAware Transoceanic
02:01AM 42.7684 -33.3124 83° East 438 504 43,000  Level FlightAware Transoceanic
02:02AM 42.7822 -33.1474 84° East 438 504 43,000  Level FlightAware Transoceanic
02:03AM 42.7959 -32.9823 84° East 438 504 43,000  Level FlightAware Transoceanic
02:04AM 42.8092 -32.8172 84° East 438 504 43,000  Level FlightAware Transoceanic
02:05AM 42.8223 -32.6520 84° East 438 504 43,000  Level FlightAware Transoceanic
02:06AM 42.8353 -32.4867 84° East 438 504 43,000  Level FlightAware Transoceanic
02:07AM 42.8479 -32.3213 84° East 438 504 43,000  Level FlightAware Transoceanic
02:08AM 42.8603 -32.1559 84° East 438 504 43,000  Level FlightAware Transoceanic
02:09AM 42.8725 -31.9904 84° East 438 504 43,000  Level FlightAware Transoceanic
02:10AM 42.8844 -31.8249 84° East 438 504 43,000  Level FlightAware Transoceanic
02:11AM 42.8961 -31.6593 85° East 438 504 43,000  Level FlightAware Transoceanic
02:12AM 42.9076 -31.4936 85° East 438 504 43,000  Level FlightAware Transoceanic
02:13AM 42.9188 -31.3279 85° East 438 504 43,000  Level FlightAware Transoceanic
02:14AM 42.9298 -31.1621 85° East 438 504 43,000  Level FlightAware Transoceanic
02:15AM 42.9406 -30.9963 85° East 438 504 43,000  Level FlightAware Transoceanic
02:16AM 42.9511 -30.8304 85° East 438 504 43,000  Level FlightAware Transoceanic
02:17AM 42.9615 -30.6618 85° East  Level FlightAware Approximate
02:18AM 42.9717 -30.4932 85° East  Level FlightAware Approximate
02:19AM 42.9816 -30.3245 85° East  Level FlightAware Approximate
02:20AM 42.9913 -30.1558 85° East  Level FlightAware Approximate
02:21AM 43.0007 -29.9871 86° East  Level FlightAware Approximate
02:22AM 43.0003 -29.9844 88° East  Level FlightAware Approximate
02:23AM 43.0039 -29.8152 88° East  Level FlightAware Approximate
02:24AM 43.0072 -29.6460 88° East  Level FlightAware Approximate
02:25AM 43.0102 -29.4767 89° East  Level FlightAware Approximate
02:26AM 43.0130 -29.3075 89° East  Level FlightAware Approximate
02:27AM 43.0155 -29.1382 89° East  Level FlightAware Approximate
02:28AM 43.0178 -28.9689 89° East  Level FlightAware Approximate
02:29AM 43.0199 -28.7996 89° East  Level FlightAware Approximate
02:30AM 43.0217 -28.6303 89° East  Level FlightAware Approximate
02:31AM 43.0232 -28.4610 89° East  Level FlightAware Approximate
02:32AM 43.0245 -28.2917 89° East  Level FlightAware Approximate
02:33AM 43.0255 -28.1223 89° East  Level FlightAware Approximate
02:34AM 43.0263 -27.9530 90° East  Level FlightAware Approximate
02:35AM 43.0269 -27.7836 90° East  Level FlightAware Approximate
02:36AM 43.0271 -27.6143 90° East  Level FlightAware Approximate
02:37AM 43.0272 -27.4450 90° East  Level FlightAware Approximate
02:38AM 43.0270 -27.2756 90° East  Level FlightAware Approximate
02:39AM 43.0265 -27.1063 90° East  Level FlightAware Approximate
02:40AM 43.0258 -26.9369 90° East  Level FlightAware Approximate
02:41AM 43.0249 -26.7676 90° East  Level FlightAware Approximate
02:42AM 43.0237 -26.5983 90° East  Level FlightAware Approximate
02:43AM 43.0222 -26.4290 91° East  Level FlightAware Approximate
02:44AM 43.0205 -26.2596 91° East  Level FlightAware Approximate
02:45AM 43.0186 -26.0903 91° East  Level FlightAware Approximate
02:46AM 43.0164 -25.9211 91° East  Level FlightAware Approximate
02:47AM 43.0139 -25.7518 91° East  Level FlightAware Approximate
02:48AM 43.0112 -25.5825 91° East  Level FlightAware Approximate
02:49AM 43.0083 -25.4133 91° East  Level FlightAware Approximate
02:50AM 43.0051 -25.2440 91° East  Level FlightAware Approximate
02:51AM 43.0016 -25.0748 92° East  Level FlightAware Approximate
02:52AM 43.0020 -24.9056 88° East  Level FlightAware Approximate
02:53AM 43.0054 -24.7364 88° East  Level FlightAware Approximate
02:54AM 43.0086 -24.5672 88° East  Level FlightAware Approximate
02:55AM 43.0115 -24.3979 89° East  Level FlightAware Approximate
02:56AM 43.0142 -24.2286 89° East  Level FlightAware Approximate
02:57AM 43.0166 -24.0594 89° East  Level FlightAware Approximate
02:58AM 43.0188 -23.8901 89° East  Level FlightAware Approximate
02:59AM 43.0207 -23.7208 89° East  Level FlightAware Approximate
03:00AM 43.0224 -23.5515 89° East  Level FlightAware Approximate
03:01AM 43.0238 -23.3821 89° East  Level FlightAware Approximate
03:02AM 43.0250 -23.2128 89° East  Level FlightAware Approximate
03:03AM 43.0259 -23.0435 90° East  Level FlightAware Approximate
03:04AM 43.0266 -22.8741 90° East  Level FlightAware Approximate
03:05AM 43.0270 -22.7048 90° East  Level FlightAware Approximate
03:06AM 43.0272 -22.5354 90° East  Level FlightAware Approximate
03:07AM 43.0271 -22.3661 90° East  Level FlightAware Approximate
03:08AM 43.0268 -22.1968 90° East  Level FlightAware Approximate
03:09AM 43.0263 -22.0274 90° East  Level FlightAware Approximate
03:10AM 43.0254 -21.8581 90° East  Level FlightAware Approximate
03:11AM 43.0244 -21.6888 90° East  Level FlightAware Approximate
03:12AM 43.0230 -21.5194 91° East  Level FlightAware Approximate
03:13AM 43.0215 -21.3501 91° East  Level FlightAware Approximate
03:14AM 43.0197 -21.1808 91° East  Level FlightAware Approximate
03:15AM 43.0176 -21.0115 91° East  Level FlightAware Approximate
03:16AM 43.0153 -20.8422 91° East  Level FlightAware Approximate
03:17AM 43.0127 -20.6729 91° East  Level FlightAware Approximate
03:18AM 43.0099 -20.5037 91° East  Level FlightAware Approximate
03:19AM 43.0068 -20.3344 91° East  Level FlightAware Approximate
03:20AM 43.0035 -20.1652 91° East  Level FlightAware Approximate
03:21AM 43.0002 -19.9960 87° East  Level FlightAware Approximate
03:22AM 43.0071 -19.8270 87° East  Level FlightAware Approximate
03:23AM 43.0138 -19.6580 87° East  Level FlightAware Approximate
03:24AM 43.0203 -19.4889 87° East  Level FlightAware Approximate
03:25AM 43.0265 -19.3198 87° East  Level FlightAware Approximate
03:26AM 43.0325 -19.1506 87° East  Level FlightAware Approximate
03:27AM 43.0382 -18.9814 87° East  Level FlightAware Approximate
03:28AM 43.0437 -18.8122 87° East  Level FlightAware Approximate
03:29AM 43.0489 -18.6430 88° East  Level FlightAware Approximate
03:30AM 43.0539 -18.4737 88° East  Level FlightAware Approximate
03:31AM 43.0586 -18.3044 88° East  Level FlightAware Approximate
03:32AM 43.0630 -18.1350 88° East  Level FlightAware Approximate
03:33AM 43.0673 -17.9657 88° East  Level FlightAware Approximate
03:34AM 43.0712 -17.7963 88° East  Level FlightAware Approximate
03:35AM 43.0750 -17.6269 88° East  Level FlightAware Approximate
03:36AM 43.0784 -17.4575 88° East  Level FlightAware Approximate
03:37AM 43.0816 -17.2881 88° East  Level FlightAware Approximate
03:38AM 43.0846 -17.1187 89° East  Level FlightAware Approximate
03:39AM 43.0873 -16.9492 89° East  Level FlightAware Approximate
03:40AM 43.0898 -16.7797 89° East  Level FlightAware Approximate
03:41AM 43.0920 -16.6102 89° East  Level FlightAware Approximate
03:42AM 43.0940 -16.4407 89° East  Level FlightAware Approximate
03:43AM 43.0957 -16.2712 89° East  Level FlightAware Approximate
03:44AM 43.0972 -16.1017 89° East  Level FlightAware Approximate
03:45AM 43.0984 -15.9321 89° East  Level FlightAware Approximate
03:46AM 43.0994 -15.7626 89° East  Level FlightAware Approximate
03:47AM 43.1001 -15.5931 90° East  Level FlightAware Approximate
03:48AM 43.1006 -15.4235 90° East  Level FlightAware Approximate
03:49AM 43.1008 -15.2540 90° East  Level FlightAware Approximate
03:50AM 43.1007 -15.0844 90° East  Level FlightAware Approximate
03:51AM 43.1004 -14.9149 90° East  Level FlightAware Approximate
03:52AM 43.1000 -14.7453 90° East  Level FlightAware Approximate
03:53AM 43.0999 -14.5758 90° East  Level FlightAware Approximate
03:54AM 43.0996 -14.4062 90° East  Level FlightAware Approximate
03:55AM 43.0990 -14.2367 90° East  Level FlightAware Approximate
03:56AM 43.0982 -14.0671 90° East  Level FlightAware Approximate
03:57AM 43.0972 -13.8976 90° East  Level FlightAware Approximate
03:58AM 43.0958 -13.7281 91° East  Level FlightAware Approximate
03:59AM 43.0943 -13.5585 91° East  Level FlightAware Approximate
04:00AM 43.0924 -13.3890 91° East  Level FlightAware Approximate
04:01AM 43.0904 -13.2195 91° East  Level FlightAware Approximate
04:02AM 43.0881 -13.0500 91° East  Level FlightAware Approximate
04:03AM 43.0855 -12.8806 91° East  Level FlightAware Approximate
04:04AM 43.0827 -12.7111 91° East  Level FlightAware Approximate
04:05AM 43.0796 -12.5417 91° East  Level FlightAware Approximate
04:06AM 43.0763 -12.3723 91° East  Level FlightAware Approximate
04:07AM 43.0727 -12.2029 92° East  Level FlightAware Approximate
04:08AM 43.0689 -12.0335 92° East  Level FlightAware Approximate
04:09AM 43.0648 -11.8641 92° East  Level FlightAware Approximate
04:10AM 43.0605 -11.6948 92° East  Level FlightAware Approximate
04:11AM 43.0559 -11.5255 92° East  Level FlightAware Approximate
04:12AM 43.0511 -11.3562 92° East  Level FlightAware Approximate
04:13AM 43.0460 -11.1869 92° East  Level FlightAware Approximate
04:14AM 43.0407 -11.0177 92° East  Level FlightAware Approximate
04:15AM 43.0351 -10.8485 93° East  Level FlightAware Approximate
04:16AM 43.0293 -10.6793 93° East  Level FlightAware Approximate
04:17AM 43.0233 -10.5102 93° East  Level FlightAware Approximate
04:18AM 43.0169 -10.3411 93° East  Level FlightAware Approximate
04:19AM 43.0104 -10.1720 93° East  Level FlightAware Approximate
04:20AM 43.0036 -10.0030 93° East  Level FlightAware Approximate
04:21AM 42.9965 -9.8340 93° East  Level FlightAware Approximate
04:22AM 42.9892 -9.6650 93° East  Level FlightAware Approximate
04:23AM 42.9797 -9.4964 98° East  Level FlightAware Approximate
04:24AM 42.9643 -9.3285 95° East  Level FlightAware Approximate
04:25AM 42.9538 -9.1600 95° East  Level FlightAware Approximate
04:26AM 42.9433 -8.9915 95° East  Level FlightAware Approximate
04:27AM 42.9328 -8.8230 94° East  Level FlightAware Approximate
04:28AM 42.9235 -8.6544 94° East  Level FlightAware Approximate
04:29AM 42.9167 -8.4857 90° East  Level FlightAware Approximate
04:30AM 42.9507 -8.3308 70° East  Level FlightAware Approximate
04:31AM 42.9927 -8.1717 70° East  Level FlightAware Approximate
04:32AM 43.0344 -8.0123 72° East  Level FlightAware Approximate
04:33AM 43.0729 -7.8513 72° East  Level FlightAware Approximate
04:34AM 43.1111 -7.6900 72° East  Level FlightAware Approximate
04:35AM 43.1546 -7.5312 69° East  Level FlightAware Approximate
04:36AM 43.1988 -7.3727 69° East  Level FlightAware Approximate
04:37AM 43.2428 -7.2139 69° East  Level FlightAware Approximate
04:38AM 43.2869 -7.0550 67° East  Level FlightAware Approximate
04:39AM 43.3352 -6.8984 67° East  Level FlightAware Approximate
04:40AM 43.3765 -6.7380 72° East  Level FlightAware Approximate
04:41AM 43.4145 -6.5759 72° East  Level FlightAware Approximate
04:42AM 43.4521 -6.4134 72° East  Level FlightAware Approximate
04:43AM 43.5000 -6.2578 90° East  Level FlightAware Approximate
04:44AM 43.5394 -6.0967 77° East  Level FlightAware Approximate
04:45AM 43.5500 -6.0333 77° East  Level FlightAware Approximate
04:46AM 43.5636 -6.0346 77° East  Level Estimated
04:47AM 43.5636 -6.0346 77° East  Level Estimated
04:48AM 43.5636 -6.0346 77° East  Level Estimated